ADDS METAR Data INFO
IDs: Format: Raw Decoded Include TAF

Data at: 1012 UTC 12 Dec 2017

K7L2 120955Z AUTO 00000KT 10SM M05/M06 A3023 RMK AO2
K7L2 120935Z AUTO 00000KT 10SM M04/M05 A3024 RMK AO2
K7L2 120915Z AUTO 00000KT 10SM M03/M04 A3025 RMK AO2
K7L2 120855Z AUTO 27004KT 10SM M03/M05 A3026 RMK AO2
K7L2 120835Z AUTO 25005KT 10SM M03/M05 A3026 RMK AO2
K7L2 120815Z AUTO 23005KT 10SM M04/M06 A3027 RMK AO2
K7L2 120755Z AUTO 00000KT 10SM M05/M06 A3029 RMK AO2
K7L2 120735Z AUTO 27004KT 10SM M06/M08 A3029 RMK AO2
K7L2 120715Z AUTO 00000KT 10SM M07/M09 A3030 RMK AO2
K7L2 120655Z AUTO 00000KT 10SM M08/M10 A3031 RMK AO2
K7L2 120635Z AUTO 00000KT 10SM M08/M10 A3031 RMK AO2
K7L2 120615Z AUTO 00000KT 10SM M09/M12 A3032 RMK AO2
K7L2 120555Z AUTO 00000KT 10SM M09/M12 A3033 RMK AO2
K7L2 120535Z AUTO 00000KT 10SM M10/M13 A3033 RMK AO2
K7L2 120515Z AUTO 00000KT 10SM M10/M12 A3033 RMK AO2
K7L2 120455Z AUTO 22004KT 10SM M09/M11 A3033 RMK AO2
K7L2 120435Z AUTO 23005KT 10SM M08/M10 A3034 RMK AO2
K7L2 120415Z AUTO 00000KT 10SM M08/M10 A3034 RMK AO2
K7L2 120355Z AUTO 00000KT 10SM M08/M10 A3034 RMK AO2
K7L2 120335Z AUTO 00000KT 10SM M08/M10 A3034 RMK AO2
K7L2 120315Z AUTO 00000KT 10SM M07/M09 A3035 RMK AO2
K7L2 120255Z AUTO 24003KT 10SM M07/M09 A3036 RMK AO2
K7L2 120235Z AUTO 23005KT 10SM M08/M10 A3036 RMK AO2
K7L2 120215Z AUTO 24004KT 10SM M07/M10 A3036 RMK AO2
K7L2 120155Z AUTO 00000KT 10SM M07/M09 A3036 RMK AO2
K7L2 120135Z AUTO 32005KT 10SM M05/M08 A3036 RMK AO2
K7L2 120115Z AUTO 28003KT 10SM M06/M09 A3036 RMK AO2
K7L2 120055Z AUTO 00000KT 10SM M04/M08 A3035 RMK AO2
K7L2 120035Z AUTO 00000KT 10SM M05/M08 A3036 RMK AO2
K7L2 120015Z AUTO 01003KT 10SM M04/M08 A3035 RMK AO2
K7L2 112355Z AUTO 01005KT 10SM M03/M07 A3034 RMK AO2
K7L2 112335Z AUTO 01006KT 10SM M03/M07 A3034 RMK AO2
K7L2 112315Z AUTO 36008KT 10SM M02/M07 A3033 RMK AO2
K7L2 112255Z AUTO 36009KT 10SM M01/M07 A3032 RMK AO2
K7L2 112235Z AUTO 36011KT 10SM M01/M06 A3032 RMK AO2
K7L2 112215Z AUTO 35014KT 10SM 00/M06 A3031 RMK AO2
K7L2 112155Z AUTO 35016G23KT 10SM 01/M06 A3030 RMK AO2
K7L2 112135Z AUTO 36016KT 10SM 01/M06 A3029 RMK AO2
K7L2 112115Z AUTO 35016G21KT 10SM 02/M05 A3028 RMK AO2
K7L2 112055Z AUTO 35015KT 10SM 02/M05 A3028 RMK AO2
K7L2 112035Z AUTO 36016KT 10SM 02/M04 A3028 RMK AO2
K7L2 112015Z AUTO 01013G21KT 10SM 02/M04 A3026 RMK AO2
K7L2 111955Z AUTO 35019G29KT 10SM 03/M05 A3025 RMK AO2
K7L2 111935Z AUTO 36023G29KT 10SM 03/M04 A3024 RMK AO2
K7L2 111915Z AUTO 35022G28KT 10SM 03/M04 A3024 RMK AO2
K7L2 111855Z AUTO 34019G28KT 10SM 03/M04 A3023 RMK AO2
K7L2 111835Z AUTO 34022KT 10SM 03/M03 A3022 RMK AO2
K7L2 111815Z AUTO 34018KT 10SM 02/M03 A3021 RMK AO2
K7L2 111755Z AUTO 34016G26KT 10SM 02/M03 A3021 RMK AO2
K7L2 111735Z AUTO 34015G20KT 10SM 02/M03 A3021 RMK AO2
K7L2 111715Z AUTO 33014G21KT 10SM 02/M03 A3020 RMK AO2
K7L2 111655Z AUTO 34015G20KT 10SM 02/M03 A3020 RMK AO2
K7L2 111635Z AUTO 34018KT 10SM 02/M02 A3018 RMK AO2
K7L2 111615Z AUTO 34020G27KT 10SM 03/M02 A3017 RMK AO2
K7L2 111555Z AUTO 34018G28KT 10SM 03/M02 A3016 RMK AO2
K7L2 111535Z AUTO 34015G24KT 10SM 03/M02 A3014 RMK AO2
K7L2 111515Z AUTO 34019G25KT 10SM 03/M02 A3012 RMK AO2
K7L2 111455Z AUTO 34018G27KT 10SM 03/M01 A3010 RMK AO2
K7L2 111435Z AUTO 34015G29KT 10SM 03/M01 A3009 RMK AO2
K7L2 111415Z AUTO 33017G34KT 10SM 03/M01 A3007 RMK AO2
K7L2 111355Z AUTO 33019G26KT 10SM 03/M01 A3005 RMK AO2
K7L2 111335Z AUTO 32019G25KT 10SM 03/M01 A3004 RMK AO2
K7L2 111315Z AUTO 32021G27KT 10SM 03/M01 A3002 RMK AO2
K7L2 111255Z AUTO 31019G26KT 10SM 03/M01 A3001 RMK AO2
K7L2 111235Z AUTO 30016KT 10SM 03/M01 A3000 RMK AO2
K7L2 111215Z AUTO 31018G26KT 10SM 04/M01 A2999 RMK AO2
K7L2 111155Z AUTO 31021G27KT 10SM 04/M01 A2997 RMK AO2
K7L2 111135Z AUTO 31021G28KT 10SM 04/M01 A2996 RMK AO2
K7L2 111115Z AUTO 31021G28KT 10SM 04/M01 A2995 RMK AO2
K7L2 111055Z AUTO 31020G30KT 10SM 04/M01 A2995 RMK AO2
K7L2 111035Z AUTO 31022G30KT 10SM 04/M01 A2993 RMK AO2
K7L2 111015Z AUTO 31025G31KT 10SM 04/M01 A2992 RMK AO2
K7L2 110955Z AUTO 31021G29KT 10SM 04/M01 A2992 RMK AO2
K7L2 110935Z AUTO 31025G32KT 10SM 04/M01 A2991 RMK AO2
K7L2 110915Z AUTO 30025G30KT 10SM 04/M02 A2990 RMK AO2
K7L2 110855Z AUTO 31022G27KT 10SM 04/M03 A2990 RMK AO2
K7L2 110835Z AUTO 30018G24KT 10SM 04/M03 A2990 RMK AO2
K7L2 110815Z AUTO 28014KT 10SM 04/M04 A2990 RMK AO2
K7L2 110755Z AUTO 28013KT 10SM 03/M05 A2990 RMK AO2
K7L2 110735Z AUTO 28015G22KT 10SM 03/M06 A2989 RMK AO2
K7L2 110715Z AUTO 28014KT 10SM 03/M06 A2990 RMK AO2
K7L2 110655Z AUTO 28010KT 10SM 02/M06 A2990 RMK AO2
K7L2 110635Z AUTO 29013KT 10SM 01/M06 A2991 RMK AO2
K7L2 110615Z AUTO 26008KT 10SM 01/M06 A2989 RMK AO2
K7L2 110555Z AUTO 21006KT 10SM 00/M05 A2991 RMK AO2
K7L2 110535Z AUTO 24004KT 10SM 02/M04 A2992 RMK AO2
K7L2 110515Z AUTO 27007KT 10SM 02/M04 A2993 RMK AO2
K7L2 110455Z AUTO 27006KT 10SM 02/M04 A2993 RMK AO2
K7L2 110435Z AUTO 26006KT 10SM 01/M05 A2994 RMK AO2
K7L2 110415Z AUTO 26006KT 10SM 01/M04 A2995 RMK AO2
K7L2 110355Z AUTO 26008KT 10SM 01/M04 A2995 RMK AO2
K7L2 110335Z AUTO 26008KT 10SM 00/M04 A2995 RMK AO2
K7L2 110315Z AUTO 26006KT 10SM 01/M04 A2995 RMK AO2
K7L2 110255Z AUTO 24006KT 10SM 01/M03 A2995 RMK AO2
K7L2 110235Z AUTO 26005KT 10SM 03/M03 A2997 RMK AO2
K7L2 110215Z AUTO 28005KT 10SM 03/M03 A2998 RMK AO2
K7L2 110155Z AUTO 25005KT 10SM 03/M03 A2998 RMK AO2
K7L2 110135Z AUTO 25005KT 10SM 03/M03 A2998 RMK AO2
K7L2 110115Z AUTO 27003KT 10SM 03/M03 A2999 RMK AO2
K7L2 110055Z AUTO 27004KT 10SM 02/M03 A3000 RMK AO2
K7L2 110035Z AUTO 29005KT 10SM 02/M03 A3002 RMK AO2
K7L2 110015Z AUTO 27006KT 10SM 02/M03 A3002 RMK AO2
K7L2 102355Z AUTO 27007KT 10SM 02/M03 A3002 RMK AO2
K7L2 102335Z AUTO 25006KT 10SM 03/M03 A3001 RMK AO2
K7L2 102315Z AUTO 27005KT 10SM 03/M03 A3002 RMK AO2
K7L2 102255Z AUTO 25005KT 10SM 03/M03 A3001 RMK AO2
K7L2 102235Z AUTO 25005KT 10SM 03/M03 A3002 RMK AO2
K7L2 102215Z AUTO 25003KT 10SM 04/M02 A3003 RMK AO2